Weather reports worldwide

Advertisment
Great Dun Fell, United Kingdom (3227): temperature & dewpoint: 31.05.2020 12:00:00 - 06.06.2020 12:00:00 (BST)Great Dun Fell, United Kingdom (3227): wind speed & gusts: 31.05.2020 12:00:00 - 06.06.2020 12:00:00 (BST)Great Dun Fell, United Kingdom (3227): wind direction: 31.05.2020 12:00:00 - 06.06.2020 12:00:00 (BST)
Date & Time tt [°C] td [°C] ff [km/h] ff [kn] fx [km/h] fx [kn] dd
06.06.2020 12:00:00 - - - - - - -
06.06.2020 11:00:00 3,7 3,7 68 37 91 49 N
06.06.2020 10:00:00 2,9 2,9 67 36 83 45 N
06.06.2020 09:00:00 2,9 2,9 59 32 70 38 NNW
06.06.2020 08:00:00 3,1 3,1 59 32 87 47 NNW
06.06.2020 07:00:00 2,8 2,8 57 31 74 40 NNW
06.06.2020 06:00:00 2,8 2,8 46 25 61 33 NNW
06.06.2020 05:00:00 2,8 2,8 52 28 65 35 NNW
06.06.2020 04:00:00 2,6 2,6 37 20 55 30 WNW
06.06.2020 03:00:00 2,1 2,1 48 26 68 37 WNW
06.06.2020 02:00:00 1,5 1,5 54 29 83 45 W
06.06.2020 01:00:00 0,8 0,8 65 35 89 48 W
06.06.2020 00:00:00 0,8 0,8 68 37 91 49 WNW
05.06.2020 23:00:00 1,1 1,0 68 37 85 46 W
05.06.2020 22:00:00 1,5 0,2 72 39 94 51 W
05.06.2020 21:00:00 2,1 -0,1 78 42 98 53 WNW
05.06.2020 20:00:00 3,0 0,5 68 37 87 47 WNW
05.06.2020 19:00:00 3,7 0,2 57 31 85 46 WNW
05.06.2020 18:00:00 4,5 -0,9 65 35 81 44 WNW
05.06.2020 17:00:00 5,1 -0,1 65 35 83 45 WNW
05.06.2020 16:00:00 4,0 1,7 41 22 81 44 WNW
05.06.2020 15:00:00 2,4 1,5 31 17 59 32 NW
05.06.2020 14:00:00 3,9 0,1 42 23 65 35 WNW
05.06.2020 13:00:00 3,1 -0,6 42 23 55 30 WNW
05.06.2020 12:00:00 1,7 0,7 37 20 50 27 WNW
05.06.2020 11:00:00 1,6 1,5 37 20 54 29 NW
05.06.2020 10:00:00 1,3 0,6 34 18 50 27 NW
05.06.2020 09:00:00 1,4 -1,7 37 20 52 28 NNW
05.06.2020 08:00:00 0,8 -0,1 41 22 54 29 NNW
05.06.2020 07:00:00 0,9 0,9 35 19 50 27 NNW
05.06.2020 06:00:00 0,4 0,4 31 17 - - NNW
05.06.2020 05:00:00 0,4 0,4 18 10 - - NNE
05.06.2020 04:00:00 0,5 0,5 22 12 - - NE
05.06.2020 03:00:00 0,7 0,7 28 15 - - NE
05.06.2020 02:00:00 1,6 1,6 24 13 - - NE
05.06.2020 01:00:00 1,7 1,7 24 13 - - NE
05.06.2020 00:00:00 2,0 2,0 21 11 - - E
04.06.2020 23:00:00 3,1 3,1 24 13 - - ENE
04.06.2020 22:00:00 4,4 4,4 21 11 - - NW
04.06.2020 21:00:00 4,4 4,3 16 9 - - NNW
04.06.2020 20:00:00 4,9 4,6 16 9 - - NNW
04.06.2020 19:00:00 4,6 4,6 22 12 - - W
04.06.2020 18:00:00 4,5 4,4 15 8 - - W
04.06.2020 17:00:00 4,8 4,6 15 8 - - W
04.06.2020 16:00:00 5,3 3,9 18 10 - - WNW
04.06.2020 15:00:00 4,7 3,4 21 11 - - NW
04.06.2020 14:00:00 4,2 2,4 21 11 - - WNW
04.06.2020 13:00:00 5,1 1,0 15 8 - - W
04.06.2020 12:00:00 4,5 2,3 18 10 - - W
04.06.2020 11:00:00 3,6 2,3 18 10 - - W
04.06.2020 10:00:00 3,3 0,8 13 7 - - W
04.06.2020 09:00:00 2,5 1,3 15 8 - - W
04.06.2020 08:00:00 2,2 1,9 9 5 - - NNW
04.06.2020 07:00:00 2,3 0,8 8 4 - - WNW
04.06.2020 06:00:00 2,5 0,8 13 7 - - N
04.06.2020 05:00:00 2,5 1,5 13 7 - - N
04.06.2020 04:00:00 2,2 2,2 11 6 - - N
04.06.2020 03:00:00 1,8 1,8 11 6 - - NE
04.06.2020 02:00:00 2,0 2,0 15 8 - - ENE
04.06.2020 01:00:00 2,4 2,4 18 10 - - NE
04.06.2020 00:00:00 2,7 2,7 28 15 - - NE
03.06.2020 23:00:00 3,2 3,2 31 17 46 25 NE
03.06.2020 22:00:00 3,4 3,4 35 19 57 31 NNE
03.06.2020 21:00:00 3,8 3,8 42 23 65 35 NE
03.06.2020 20:00:00 4,0 3,9 39 21 59 32 NE
03.06.2020 19:00:00 4,5 3,5 46 25 57 31 NE
03.06.2020 18:00:00 4,9 3,5 44 24 61 33 NE
03.06.2020 17:00:00 4,3 3,6 48 26 72 39 NE
03.06.2020 16:00:00 3,4 3,2 48 26 65 35 NE
03.06.2020 15:00:00 3,8 3,8 54 29 65 35 NE
03.06.2020 14:00:00 3,4 3,4 42 23 54 29 NE
03.06.2020 13:00:00 3,2 3,2 31 17 63 34 NE
03.06.2020 12:00:00 3,2 3,2 44 24 59 32 NE
03.06.2020 11:00:00 3,1 3,1 44 24 61 33 NE
03.06.2020 10:00:00 3,0 3,0 46 25 70 38 NE
03.06.2020 09:00:00 3,8 3,8 54 29 72 39 NE
03.06.2020 08:00:00 4,0 4,0 52 28 68 37 NE
03.06.2020 07:00:00 4,3 4,3 48 26 67 36 NE
03.06.2020 06:00:00 5,0 5,0 44 24 61 33 NE
03.06.2020 05:00:00 5,7 5,7 48 26 61 33 NE
03.06.2020 04:00:00 6,0 6,0 39 21 50 27 NE
03.06.2020 03:00:00 6,8 6,8 31 17 - - NE
03.06.2020 02:00:00 9,0 9,0 13 7 - - NE
03.06.2020 01:00:00 9,4 9,1 11 6 - - E
03.06.2020 00:00:00 10,6 9,6 5 3 - - NNW
02.06.2020 23:00:00 10,0 9,8 11 6 - - NE
02.06.2020 22:00:00 10,0 9,4 15 8 - - NNE
02.06.2020 21:00:00 10,2 9,1 21 11 - - N
02.06.2020 20:00:00 11,7 8,0 29 16 - - NW
02.06.2020 19:00:00 11,7 5,3 35 19 - - NW
02.06.2020 18:00:00 12,9 5,5 29 16 - - NW
02.06.2020 17:00:00 15,3 4,9 29 16 48 26 WNW
02.06.2020 16:00:00 15,4 5,2 24 13 - - WNW
02.06.2020 15:00:00 15,8 4,4 11 6 - - N
02.06.2020 14:00:00 14,7 3,8 15 8 - - NNW
02.06.2020 13:00:00 14,7 3,1 11 6 - - N
02.06.2020 12:00:00 14,5 1,0 9 5 - - N
02.06.2020 11:00:00 14,2 -0,6 9 5 - - N
02.06.2020 10:00:00 13,5 1,3 13 7 - - N
02.06.2020 09:00:00 11,6 -1,9 8 4 - - NW
02.06.2020 08:00:00 11,6 -2,3 5 3 - - NNE
02.06.2020 07:00:00 10,8 0,5 15 8 - - N
02.06.2020 06:00:00 10,6 2,1 11 6 - - N
02.06.2020 05:00:00 10,4 4,7 9 5 - - NNW
02.06.2020 04:00:00 10,1 5,6 4 2 - - ENE
02.06.2020 03:00:00 10,3 6,2 4 2 - - N
02.06.2020 02:00:00 10,2 5,3 5 3 - - ESE
02.06.2020 01:00:00 9,9 5,1 4 2 - - SSE
02.06.2020 00:00:00 10,1 4,4 13 7 - - SE
01.06.2020 23:00:00 9,8 7,2 11 6 - - ESE
01.06.2020 22:00:00 9,7 7,2 21 11 - - E
01.06.2020 21:00:00 10,1 5,4 21 11 - - E
01.06.2020 20:00:00 11,4 3,5 22 12 - - E
01.06.2020 19:00:00 12,3 1,9 26 14 - - ENE
01.06.2020 18:00:00 12,8 1,2 24 13 - - ENE
01.06.2020 17:00:00 13,5 1,6 28 15 - - E
01.06.2020 16:00:00 13,5 1,0 22 12 - - ENE
01.06.2020 15:00:00 13,5 1,5 22 12 - - ENE
01.06.2020 14:00:00 13,1 1,9 26 14 - - ENE
01.06.2020 13:00:00 12,7 4,4 28 15 - - E
01.06.2020 12:00:00 12,6 2,8 22 12 - - E
01.06.2020 11:00:00 11,6 -0,3 24 13 - - E
01.06.2020 10:00:00 11,2 0,9 22 12 - - E
01.06.2020 09:00:00 10,7 1,3 24 13 - - E
01.06.2020 08:00:00 9,9 1,0 21 11 - - E
01.06.2020 07:00:00 9,7 0,0 11 6 - - E
01.06.2020 06:00:00 10,0 -0,7 11 6 - - ESE
01.06.2020 05:00:00 9,5 2,9 22 12 - - E
01.06.2020 04:00:00 9,7 3,0 26 14 - - E
01.06.2020 03:00:00 9,6 3,2 24 13 - - ESE
01.06.2020 02:00:00 9,1 3,2 26 14 - - ESE
01.06.2020 01:00:00 8,5 4,5 26 14 - - ESE
01.06.2020 00:00:00 9,0 4,6 31 17 - - E
31.05.2020 23:00:00 9,3 5,8 29 16 - - E
31.05.2020 22:00:00 9,7 5,9 31 17 - - E
31.05.2020 21:00:00 10,8 5,8 29 16 - - E
31.05.2020 20:00:00 12,2 5,4 34 18 - - E
31.05.2020 19:00:00 13,0 5,7 35 19 - - E
31.05.2020 18:00:00 13,3 5,3 34 18 46 25 ESE
31.05.2020 17:00:00 13,6 5,2 29 16 - - E
31.05.2020 16:00:00 14,7 4,1 22 12 48 26 SE
31.05.2020 15:00:00 14,4 3,4 26 14 - - SE
31.05.2020 14:00:00 13,7 4,3 29 16 50 27 SE
31.05.2020 13:00:00 12,5 1,8 35 19 52 28 ESE
31.05.2020 12:00:00 11,2 2,3 41 22 55 30 E

tt = temperature
td = dewpoint
ff = wind speed
fx = gusts
dd = wind direction

Next stations